Time,TemperatureF,DewpointF,PressureIn,WindDirection,WindDirectionDegrees,WindSpeedMPH,WindSpeedGustMPH,Humidity,HourlyPrecipIn,Conditions,Clouds,dailyrainin,SoftwareType,DateUTC
2017-03-22 00:24:00,33.0,32.0,-100.00,SW,227,15.0,27.0,96,-99.99,,,-99.99,,2017-03-22 07:24:00,
2017-03-22 00:58:00,32.0,31.0,-100.00,SSE,165,14.0,27.0,98,-99.99,,,-99.99,,2017-03-22 07:58:00,
2017-03-22 01:14:00,32.0,31.0,-100.00,SSE,165,14.0,27.0,98,-99.99,,,-99.99,,2017-03-22 08:14:00,
2017-03-22 01:23:00,32.0,31.0,-100.00,SSE,165,14.0,-999.0,98,-99.99,,,-99.99,,2017-03-22 08:23:00,
2017-03-22 01:31:00,32.0,31.0,-100.00,SSE,163,8.0,-999.0,98,-99.99,,,-99.99,,2017-03-22 08:31:00,
2017-03-22 02:05:00,32.0,31.0,-100.00,SSE,163,8.0,21.0,98,-99.99,,,-99.99,,2017-03-22 09:05:00,
2017-03-22 02:31:00,32.0,31.0,-100.00,SW,222,5.0,-999.0,98,-99.99,,,-99.99,,2017-03-22 09:31:00,
2017-03-22 03:05:00,32.0,31.0,-100.00,SW,222,5.0,12.0,98,-99.99,,,-99.99,,2017-03-22 10:05:00,
2017-03-22 03:23:00,32.0,31.0,-100.00,SW,222,5.0,-999.0,98,-99.99,,,-99.99,,2017-03-22 10:23:00,
2017-03-22 04:24:00,32.0,31.0,-100.00,SSW,204,8.0,13.0,98,-99.99,,,-99.99,,2017-03-22 11:24:00,
2017-03-22 05:05:00,32.0,32.0,-100.00,SW,221,7.0,13.0,99,-99.99,,,-99.99,,2017-03-22 12:05:00,
2017-03-22 05:24:00,32.0,32.0,-100.00,SW,221,7.0,13.0,99,-99.99,,,-99.99,,2017-03-22 12:24:00,
2017-03-22 06:24:00,31.0,31.0,-100.00,SW,231,2.0,12.0,98,-99.99,,,-99.99,,2017-03-22 13:24:00,
2017-03-22 06:31:00,31.0,31.0,-100.00,West,259,3.0,7.0,99,-99.99,,,-99.99,,2017-03-22 13:31:00,
2017-03-22 06:58:00,31.0,31.0,-100.00,West,259,3.0,7.0,99,-99.99,,,-99.99,,2017-03-22 13:58:00,
2017-03-22 07:13:00,31.0,31.0,-100.00,North,-9999,-999.9,-999.0,99,-99.99,,,-99.99,,2017-03-22 14:13:00,
2017-03-22 07:24:00,31.0,31.0,-100.00,West,259,3.0,-999.0,99,-99.99,,,-99.99,,2017-03-22 14:24:00,
2017-03-22 08:23:00,30.0,30.0,-100.00,West,279,5.0,12.0,98,-99.99,,,-99.99,,2017-03-22 15:23:00,
2017-03-22 08:31:00,31.0,31.0,-100.00,WNW,287,2.0,10.0,98,-99.99,,,-99.99,,2017-03-22 15:31:00,
2017-03-22 09:14:00,31.0,31.0,-100.00,WNW,287,2.0,10.0,98,-99.99,,,-99.99,,2017-03-22 16:14:00,
2017-03-22 10:14:00,31.0,30.0,-100.00,WSW,237,7.0,13.0,95,-99.99,,,-99.99,,2017-03-22 17:14:00,
2017-03-22 10:25:00,31.0,30.0,-100.00,WSW,237,7.0,13.0,95,-99.99,,,-99.99,,2017-03-22 17:25:00,
2017-03-22 10:58:00,31.0,29.0,-100.00,West,274,5.0,12.0,94,-99.99,,,-99.99,,2017-03-22 17:58:00,
2017-03-22 15:14:00,37.0,34.0,-100.00,WNW,294,-999.9,-999.0,89,-99.99,,,-99.99,,2017-03-22 22:14:00,
2017-03-22 15:25:00,37.0,34.0,-100.00,WNW,294,7.0,14.0,89,-99.99,,,-99.99,,2017-03-22 22:25:00,
2017-03-22 16:06:00,38.0,34.0,-100.00,West,276,9.0,16.0,84,-99.99,,,-99.99,,2017-03-22 23:06:00,
2017-03-22 16:24:00,38.0,34.0,-100.00,West,276,9.0,16.0,84,-99.99,,,-99.99,,2017-03-22 23:24:00,
2017-03-22 17:06:00,38.0,32.0,-100.00,WNW,297,8.0,16.0,79,-99.99,,,-99.99,,2017-03-23 00:06:00,
2017-03-22 17:24:00,38.0,32.0,-100.00,WNW,297,8.0,16.0,79,-99.99,,,-99.99,,2017-03-23 00:24:00,
2017-03-22 18:24:00,35.0,32.0,-100.00,NW,305,11.0,20.0,87,-99.99,,,-99.99,,2017-03-23 01:24:00,
2017-03-22 19:25:00,33.0,31.0,-100.00,NW,310,12.0,21.0,94,-99.99,,,-99.99,,2017-03-23 02:25:00,